Carlsbad, NM (88220)

5:15 PM MST on February 13, 2016 (GMT -0700)
KNMCARLS3 | | Change Station
CLOSE
Current Station
Personal Weather Station
Location: Carlsbad, NM
Elevation: 3158 ft
Nearby Weather Stations

Elev 3158 ft 32.43 °N, 104.25 °W | Updated 1 second ago

Clear
Clear
71.4 °F
Feels Like 76 °F
N
2.0
Wind Variable Wind from SSE
Gusts 6.0 mph

Today
High -- | Low -- °F
--% Chance of Precip.
Yesterday
High -- | Low -- °F
Precip. -- in
Pressure 29.94 in
Visibility -9999.0 miles
Clouds Clear
Heat Index 76 °F
Dew Point 34 °F
Humidity 25%
Rainfall 0.00 in
Snow Depth Not available.
6:41 AM 5:40 PM
Waxing Crescent, 35% visible
METAR KCNM 132353Z AUTO 16004KT CLR 21/M02 A3001 RMK AO2 SLP137 T02111017 10244 20133 56019 $
Pressure 29.94 in
Visibility -9999.0 miles
Clouds Clear
Heat Index 76 °F
Dew Point 34 °F
Humidity 25%
Rainfall 0.00 in
Snow Depth Not available.
6:41 AM 5:40 PM
Waxing Crescent, 35% visible
METAR KCNM 132353Z AUTO 16004KT CLR 21/M02 A3001 RMK AO2 SLP137 T02111017 10244 20133 56019 $

10-Day Weather Forecast

Almanac

Astronomy

Feb. 13, 2016 Rise Set
Actual Time
Civil Twilight
Nautical Twilight
Astronomical Twilight
Moon
Length of Visible Light
Length of Day
Tomorrow will be .
, % of the Moon is Illuminated

Today's Extremes

State Highs State Lows

Community

WunderPhotos

Upload Photos

1,892,709 photos uploaded!

WunderBlog® & News

Nearby

Air Quality

  Air Quality AQ Index Pollutant
Not available.

Snow Depth

Station Depth Elevation

Earthquake Activity

City Distance Mag. Time & Date
Minimum magnitude displayed is 2.5.

Coastal Water Temperatures

Place Temperature

Stations

Nearby Weather Stations

Station Location Temp. Windchill Dew Point Humidity Wind Precip. Elev Updated Type
                   

Watches & Warnings

There are currently no watches in effect.